Time;durP1;ratioP1;P1;durP2;ratioP2;P2;SDS_P1;SDS_P2;PMS_P1;PMS_P2;Temp;Humidity;BMP_temperature;BMP_pressure;BME280_temperature;BME280_humidity;BME280_pressure;Samples;Min_cycle;Max_cycle;Signal;HPM_P1;HPM_P2
2023/10/15 00:00:15;;;;;;;4.60;2.00;;;9.70;72.90;;;;;;936775;150;27422;-76
2023/10/15 00:02:37;;;;;;;3.57;1.90;;;9.70;72.30;;;;;;961706;146;27433;-76
2023/10/15 00:05:05;;;;;;;2.50;1.80;;;9.60;72.40;;;;;;964169;146;27334;-76
2023/10/15 00:07:30;;;;;;;6.53;2.00;;;9.50;72.50;;;;;;963740;145;27339;-76
2023/10/15 00:09:56;;;;;;;3.07;1.60;;;9.50;72.60;;;;;;963700;146;27359;-76
2023/10/15 00:12:23;;;;;;;3.60;1.97;;;9.50;72.70;;;;;;964120;146;27508;-76
2023/10/15 00:14:49;;;;;;;3.30;2.00;;;9.40;72.80;;;;;;963703;146;27340;-76
2023/10/15 00:17:16;;;;;;;2.37;1.50;;;9.40;73.00;;;;;;962830;146;27303;-76
2023/10/15 00:19:43;;;;;;;2.83;1.70;;;9.30;73.10;;;;;;963965;146;27611;-76
2023/10/15 00:22:09;;;;;;;3.97;1.63;;;9.30;73.10;;;;;;963769;146;28155;-76
2023/10/15 00:24:37;;;;;;;5.87;1.60;;;9.20;73.20;;;;;;964846;146;27832;-76
2023/10/15 00:27:02;;;;;;;3.40;1.67;;;9.20;73.50;;;;;;963231;146;27369;-76
2023/10/15 00:29:29;;;;;;;2.93;1.40;;;9.20;73.60;;;;;;964584;146;27295;-76
2023/10/15 00:31:56;;;;;;;3.67;1.70;;;9.10;73.70;;;;;;963282;146;27321;-76
2023/10/15 00:34:22;;;;;;;3.90;1.93;;;9.10;73.80;;;;;;964157;146;27322;-76
2023/10/15 00:36:49;;;;;;;4.53;1.60;;;9.10;73.90;;;;;;964090;146;27334;-76
2023/10/15 00:39:21;;;;;;;4.33;2.47;;;9.10;74.10;;;;;;964594;146;28791;-75
2023/10/15 00:41:53;;;;;;;4.63;1.80;;;9.00;74.10;;;;;;965396;146;27354;-77
2023/10/15 00:44:17;;;;;;;2.67;1.63;;;9.00;74.20;;;;;;963576;146;27387;-76
2023/10/15 00:46:54;;;;;;;2.00;1.70;;;9.00;74.30;;;;;;963466;146;27412;-76
2023/10/15 00:49:12;;;;;;;3.03;1.50;;;8.90;74.40;;;;;;961808;146;27329;-76
2023/10/15 00:51:40;;;;;;;3.90;1.77;;;8.90;74.40;;;;;;964799;146;27391;-75
2023/10/15 00:54:09;;;;;;;2.60;1.70;;;8.90;74.60;;;;;;963265;146;27726;-75
2023/10/15 00:56:33;;;;;;;3.50;1.47;;;8.80;74.70;;;;;;963811;146;27419;-75
2023/10/15 01:01:38;;;;;;;2.83;1.70;;;8.80;74.90;;;;;;964627;146;27341;-76
2023/10/15 01:04:11;;;;;;;4.10;1.70;;;8.80;74.90;;;;;;962803;146;27343;-76
2023/10/15 01:06:35;;;;;;;3.23;1.50;;;8.70;75.00;;;;;;961412;146;27239;-75
2023/10/15 01:08:58;;;;;;;3.73;1.93;;;8.70;75.20;;;;;;963098;146;27443;-76
2023/10/15 01:11:28;;;;;;;6.97;2.03;;;8.70;75.90;;;;;;963109;146;27306;-76
2023/10/15 01:13:51;;;;;;;3.60;1.90;;;8.70;76.10;;;;;;963552;146;27327;-75
2023/10/15 01:16:20;;;;;;;4.60;1.53;;;8.60;75.40;;;;;;964659;146;27323;-75
2023/10/15 01:18:57;;;;;;;3.07;1.83;;;8.60;75.50;;;;;;962980;146;27883;-76
2023/10/15 01:21:16;;;;;;;3.40;1.80;;;8.60;75.70;;;;;;962669;146;28226;-76
2023/10/15 01:26:23;;;;;;;3.80;1.57;;;8.60;75.80;;;;;;964450;146;27362;-76
2023/10/15 01:28:43;;;;;;;3.17;1.70;;;8.60;75.80;;;;;;962677;146;27461;-76
2023/10/15 01:31:14;;;;;;;3.00;1.80;;;8.50;75.80;;;;;;963547;146;27394;-76
2023/10/15 01:33:46;;;;;;;5.43;1.70;;;8.50;76.00;;;;;;963211;146;27331;-76
2023/10/15 01:36:06;;;;;;;3.37;1.60;;;8.50;76.10;;;;;;961242;146;27416;-75
2023/10/15 01:38:28;;;;;;;2.60;1.60;;;8.40;76.10;;;;;;960437;146;27420;-75
2023/10/15 01:40:56;;;;;;;3.63;1.63;;;8.40;76.40;;;;;;949661;147;27422;-75
2023/10/15 01:43:22;;;;;;;2.87;1.43;;;8.40;76.40;;;;;;949827;147;27242;-76
2023/10/15 01:45:48;;;;;;;2.80;1.63;;;8.40;76.50;;;;;;949521;147;27421;-76
2023/10/15 01:48:39;;;;;;;2.40;2.13;;;8.30;76.50;;;;;;950940;147;27804;-76
2023/10/15 01:50:44;;;;;;;4.77;1.27;;;8.30;76.60;;;;;;947845;147;27368;-76
2023/10/15 01:53:07;;;;;;;3.17;1.57;;;8.20;76.70;;;;;;950323;147;27347;-77
2023/10/15 01:55:36;;;;;;;1.97;1.50;;;8.20;76.90;;;;;;950715;147;28063;-76
2023/10/15 01:58:01;;;;;;;2.23;1.63;;;8.20;76.90;;;;;;947519;147;27356;-76
2023/10/15 02:03:11;;;;;;;2.00;1.67;;;8.20;77.10;;;;;;950020;147;27323;-76
2023/10/15 02:05:41;;;;;;;3.17;1.50;;;8.10;77.10;;;;;;949448;147;27445;-76
2023/10/15 02:08:13;;;;;;;2.23;1.40;;;8.10;77.20;;;;;;950075;147;27386;-76
2023/10/15 02:10:40;;;;;;;2.07;1.20;;;8.10;77.20;;;;;;950398;147;27829;-76
2023/10/15 02:13:11;;;;;;;2.63;1.50;;;8.00;77.10;;;;;;949490;147;27338;-76
2023/10/15 02:15:33;;;;;;;4.13;1.70;;;8.00;77.30;;;;;;948555;147;27331;-76
2023/10/15 02:18:00;;;;;;;2.13;1.60;;;7.90;77.40;;;;;;949161;147;27705;-75
2023/10/15 02:20:42;;;;;;;2.73;1.27;;;7.90;77.50;;;;;;950002;147;28035;-76
2023/10/15 02:22:57;;;;;;;3.47;1.77;;;7.80;77.70;;;;;;947487;147;27298;-76
2023/10/15 02:25:27;;;;;;;4.97;1.70;;;7.80;77.70;;;;;;949139;147;27329;-76
2023/10/15 02:27:49;;;;;;;4.57;1.67;;;7.80;77.80;;;;;;948525;147;27362;-76
2023/10/15 02:30:15;;;;;;;2.97;1.50;;;7.70;77.90;;;;;;949614;147;27455;-76
2023/10/15 02:32:43;;;;;;;2.80;1.80;;;7.70;77.90;;;;;;950539;147;27357;-75
2023/10/15 02:35:13;;;;;;;3.10;1.30;;;7.60;77.90;;;;;;950553;147;27332;-75
2023/10/15 02:37:40;;;;;;;4.40;1.80;;;7.60;78.00;;;;;;950187;147;27316;-75
2023/10/15 02:40:12;;;;;;;3.63;1.50;;;7.50;78.10;;;;;;956672;146;27492;-76
2023/10/15 02:42:31;;;;;;;3.27;1.57;;;7.50;78.20;;;;;;962239;146;27465;-76
2023/10/15 02:45:01;;;;;;;2.17;1.60;;;7.50;78.40;;;;;;962407;146;27481;-76
2023/10/15 02:47:41;;;;;;;2.97;1.30;;;7.40;79.00;;;;;;936904;150;27382;-76
2023/10/15 02:50:00;;;;;;;2.87;1.60;;;7.40;78.60;;;;;;961745;146;27399;-76
2023/10/15 02:52:24;;;;;;;4.87;1.63;;;7.30;78.80;;;;;;964153;146;27361;-76
2023/10/15 02:54:49;;;;;;;3.20;1.40;;;7.30;79.00;;;;;;963220;146;27314;-76
2023/10/15 02:57:16;;;;;;;2.80;1.70;;;7.20;79.10;;;;;;963832;146;27392;-75
2023/10/15 02:59:50;;;;;;;3.53;1.67;;;7.20;79.30;;;;;;964148;146;27342;-76
2023/10/15 03:02:11;;;;;;;2.07;1.40;;;7.20;79.40;;;;;;964313;146;27354;-76
2023/10/15 03:04:38;;;;;;;4.07;1.60;;;7.20;79.60;;;;;;963762;146;27382;-76
2023/10/15 03:07:19;;;;;;;2.67;1.80;;;7.10;79.70;;;;;;963611;146;27643;-76
2023/10/15 03:09:44;;;;;;;1.80;1.70;;;7.10;79.80;;;;;;964129;146;27410;-77
2023/10/15 03:12:14;;;;;;;2.93;1.60;;;7.10;79.90;;;;;;962675;146;27418;-77
2023/10/15 03:14:37;;;;;;;4.73;1.80;;;7.00;80.00;;;;;;962637;146;27729;-78
2023/10/15 03:17:10;;;;;;;4.30;1.90;;;7.00;80.30;;;;;;963686;146;27345;-76
2023/10/15 03:19:33;;;;;;;1.57;1.47;;;7.00;80.40;;;;;;962806;146;27328;-76
2023/10/15 03:21:58;;;;;;;2.30;1.63;;;7.00;80.60;;;;;;963491;146;27380;-76
2023/10/15 03:24:23;;;;;;;2.00;1.60;;;7.00;80.80;;;;;;963938;146;27322;-76
2023/10/15 03:26:50;;;;;;;6.17;2.17;;;7.00;80.90;;;;;;964024;146;27373;-76
2023/10/15 03:29:19;;;;;;;2.67;1.70;;;7.00;81.20;;;;;;964184;146;27342;-76
2023/10/15 03:31:47;;;;;;;3.50;1.97;;;7.00;81.40;;;;;;963238;146;28322;-76
2023/10/15 03:44:49;;;;;;;3.47;2.00;;;7.10;82.00;;;;;;964052;146;27342;-75
2023/10/15 03:47:13;;;;;;;4.97;1.60;;;7.10;81.80;;;;;;963442;146;27341;-76
2023/10/15 03:49:39;;;;;;;2.00;1.60;;;7.10;82.00;;;;;;963120;146;27354;-75
2023/10/15 03:52:09;;;;;;;2.10;1.70;;;7.10;82.30;;;;;;964996;146;27422;-76
2023/10/15 03:54:37;;;;;;;2.27;1.90;;;7.10;82.50;;;;;;964395;146;27449;-75
2023/10/15 03:57:01;;;;;;;2.27;1.70;;;7.10;82.40;;;;;;962700;146;27411;-76
2023/10/15 03:59:28;;;;;;;4.83;1.83;;;7.10;82.50;;;;;;964010;146;27375;-76
2023/10/15 04:01:56;;;;;;;3.37;1.90;;;7.20;82.60;;;;;;964525;146;27351;-76
2023/10/15 04:04:21;;;;;;;1.70;1.60;;;7.20;82.70;;;;;;962967;146;27411;-76
2023/10/15 04:07:03;;;;;;;2.60;1.73;;;7.20;82.80;;;;;;964408;146;27400;-75
2023/10/15 04:09:24;;;;;;;2.73;1.73;;;7.20;82.60;;;;;;962825;146;27367;-76
2023/10/15 04:11:49;;;;;;;2.60;2.20;;;7.20;82.60;;;;;;964327;146;27362;-75
2023/10/15 04:14:28;;;;;;;3.33;3.03;;;7.20;82.50;;;;;;964298;146;27392;-76
2023/10/15 04:16:50;;;;;;;7.40;4.70;;;7.20;82.30;;;;;;963318;146;27246;-76
2023/10/15 04:19:17;;;;;;;3.53;2.87;;;7.20;82.20;;;;;;964307;146;27314;-76
2023/10/15 04:21:43;;;;;;;5.47;2.70;;;7.10;82.10;;;;;;963569;146;27426;-77
2023/10/15 04:24:08;;;;;;;2.60;2.40;;;7.10;82.20;;;;;;963227;146;27463;-78
2023/10/15 04:26:42;;;;;;;3.03;2.20;;;7.10;82.30;;;;;;964248;146;27325;-78
2023/10/15 04:29:22;;;;;;;3.97;1.97;;;7.00;82.30;;;;;;962032;146;27384;-78
2023/10/15 04:31:34;;;;;;;1.73;1.63;;;7.00;81.50;;;;;;957262;146;27844;-78
2023/10/15 04:34:00;;;;;;;3.37;1.80;;;6.90;81.20;;;;;;963430;146;27311;-76
2023/10/15 04:36:27;;;;;;;4.60;1.97;;;6.90;82.50;;;;;;964123;146;27299;-76
2023/10/15 04:39:11;;;;;;;3.20;2.00;;;6.80;82.60;;;;;;964471;146;27310;-75
2023/10/15 04:41:22;;;;;;;2.33;1.57;;;6.80;83.00;;;;;;953659;146;27407;-76
2023/10/15 04:43:49;;;;;;;2.30;2.00;;;6.80;83.90;;;;;;949351;147;27445;-76
2023/10/15 04:46:19;;;;;;;2.40;1.77;;;6.80;83.40;;;;;;949247;147;27796;-76
2023/10/15 04:48:44;;;;;;;3.17;1.97;;;6.80;83.60;;;;;;949277;147;27729;-76
2023/10/15 04:51:14;;;;;;;3.60;1.77;;;6.80;83.60;;;;;;949109;147;27422;-76
2023/10/15 04:53:39;;;;;;;3.50;2.23;;;6.70;83.70;;;;;;949709;147;27316;-76
2023/10/15 04:56:05;;;;;;;1.60;1.50;;;6.70;83.60;;;;;;949599;147;27321;-75
2023/10/15 04:58:31;;;;;;;3.10;1.90;;;6.70;83.80;;;;;;949471;147;27476;-75
2023/10/15 05:01:01;;;;;;;2.83;1.70;;;6.70;83.90;;;;;;950041;147;27386;-76
2023/10/15 05:03:27;;;;;;;2.03;1.70;;;6.70;84.00;;;;;;948786;147;27407;-76
2023/10/15 05:05:55;;;;;;;1.80;1.57;;;6.70;84.00;;;;;;950785;147;27309;-76
2023/10/15 05:08:24;;;;;;;2.93;1.80;;;6.60;84.00;;;;;;948048;147;27764;-76
2023/10/15 05:10:50;;;;;;;2.60;2.40;;;6.60;84.00;;;;;;950039;147;27359;-76
2023/10/15 05:13:14;;;;;;;2.50;1.80;;;6.60;84.10;;;;;;948896;147;27352;-76
2023/10/15 05:15:42;;;;;;;2.47;2.10;;;6.60;84.20;;;;;;951899;147;27389;-76
2023/10/15 05:18:07;;;;;;;2.33;1.77;;;6.50;84.30;;;;;;949201;147;27850;-75
2023/10/15 05:20:33;;;;;;;1.87;1.60;;;6.50;84.50;;;;;;949896;147;27362;-76
2023/10/15 05:23:00;;;;;;;4.23;1.83;;;6.50;84.60;;;;;;948479;147;27432;-76
2023/10/15 05:25:26;;;;;;;4.27;2.00;;;6.50;84.70;;;;;;949998;147;27421;-76
2023/10/15 05:27:53;;;;;;;2.83;1.80;;;6.50;84.90;;;;;;948415;147;27339;-75
2023/10/15 05:30:20;;;;;;;2.30;1.83;;;6.50;85.10;;;;;;949985;147;27383;-76
2023/10/15 05:32:48;;;;;;;2.27;1.70;;;6.50;85.50;;;;;;949938;147;27312;-76
2023/10/15 05:35:13;;;;;;;3.27;1.90;;;6.50;85.70;;;;;;950215;147;27353;-75
2023/10/15 05:37:42;;;;;;;2.67;1.87;;;6.60;86.00;;;;;;949063;147;27395;-76
2023/10/15 05:40:09;;;;;;;6.07;1.80;;;6.50;85.90;;;;;;949159;147;27386;-76
2023/10/15 05:42:35;;;;;;;2.63;2.07;;;6.60;86.00;;;;;;949475;147;27367;-76
2023/10/15 05:45:06;;;;;;;3.33;1.70;;;6.60;86.00;;;;;;950345;147;27324;-76
2023/10/15 05:47:28;;;;;;;2.53;1.67;;;6.60;86.00;;;;;;949217;147;27405;-76
2023/10/15 05:49:55;;;;;;;3.20;1.83;;;6.60;86.00;;;;;;950055;147;27317;-80
2023/10/15 05:52:23;;;;;;;3.47;1.90;;;6.60;85.90;;;;;;950086;147;27311;-80
2023/10/15 05:54:51;;;;;;;2.23;2.03;;;6.60;86.00;;;;;;949147;147;27419;-78
2023/10/15 05:57:15;;;;;;;4.43;1.80;;;6.70;86.20;;;;;;947422;147;28125;-80
2023/10/15 05:59:41;;;;;;;2.20;1.97;;;6.70;86.50;;;;;;949480;147;27440;-80
2023/10/15 06:02:08;;;;;;;1.97;1.87;;;6.70;86.60;;;;;;949523;147;27299;-77
2023/10/15 06:04:36;;;;;;;4.70;2.07;;;6.70;86.80;;;;;;949998;147;27319;-80
2023/10/15 06:07:01;;;;;;;8.37;2.73;;;6.70;86.80;;;;;;949803;147;27487;-80
2023/10/15 06:09:28;;;;;;;2.67;1.87;;;6.70;87.00;;;;;;950271;147;27302;-80
2023/10/15 06:11:54;;;;;;;2.40;1.70;;;6.80;87.10;;;;;;949160;147;27810;-79
2023/10/15 06:14:23;;;;;;;2.67;1.90;;;6.80;87.10;;;;;;950273;147;27313;-77
2023/10/15 06:16:52;;;;;;;2.40;2.10;;;6.80;87.10;;;;;;949761;147;27363;-80
2023/10/15 06:19:14;;;;;;;4.57;2.00;;;6.80;87.10;;;;;;948951;147;27728;-79
2023/10/15 06:21:41;;;;;;;1.80;1.70;;;6.90;87.30;;;;;;950290;147;27304;-79
2023/10/15 06:24:09;;;;;;;2.30;1.80;;;6.90;87.40;;;;;;949894;147;27429;-79
2023/10/15 06:26:34;;;;;;;3.50;1.70;;;6.90;87.60;;;;;;949659;147;27355;-78
2023/10/15 06:29:00;;;;;;;4.63;2.13;;;6.90;87.90;;;;;;949718;147;27431;-78
2023/10/15 06:31:28;;;;;;;2.27;1.87;;;7.00;88.20;;;;;;949638;147;27995;-79
2023/10/15 06:33:55;;;;;;;8.13;2.90;;;7.10;89.20;;;;;;949620;147;27360;-78
2023/10/15 06:36:20;;;;;;;3.23;2.20;;;7.30;90.50;;;;;;949812;147;27265;-79
2023/10/15 06:38:47;;;;;;;2.53;2.30;;;7.60;91.60;;;;;;951283;147;27389;-79
2023/10/15 06:41:13;;;;;;;2.20;1.63;;;8.00;92.50;;;;;;950187;147;27454;-76
2023/10/15 06:43:40;;;;;;;3.97;2.43;;;8.40;92.90;;;;;;968426;145;27314;-77
2023/10/15 06:46:09;;;;;;;3.97;2.20;;;8.90;92.30;;;;;;932520;151;27396;-78
2023/10/15 06:48:37;;;;;;;4.13;1.77;;;9.30;91.40;;;;;;933200;151;27380;-78
2023/10/15 06:51:04;;;;;;;3.83;1.80;;;9.60;91.00;;;;;;937113;150;27397;-78
2023/10/15 06:53:29;;;;;;;4.00;2.00;;;10.00;91.40;;;;;;948535;148;27408;-79
2023/10/15 06:55:55;;;;;;;2.47;2.03;;;10.40;92.00;;;;;;931919;151;27347;-81
2023/10/15 06:58:22;;;;;;;2.63;1.87;;;10.90;92.30;;;;;;933954;150;27371;-81
2023/10/15 07:00:48;;;;;;;3.30;1.80;;;11.50;92.70;;;;;;933791;151;27340;-76
2023/10/15 07:03:15;;;;;;;3.80;1.93;;;12.20;92.70;;;;;;931088;151;27503;-80
2023/10/15 07:05:42;;;;;;;2.47;1.52;;;12.80;92.20;;;;;;945028;149;27467;-81
2023/10/15 07:08:08;;;;;;;2.45;1.80;;;13.50;91.50;;;;;;937668;151;27284;-82
2023/10/15 07:10:36;;;;;;;3.02;1.70;;;14.20;90.80;;;;;;933467;151;27408;-80
2023/10/15 07:13:01;;;;;;;2.85;1.40;;;14.90;90.20;;;;;;948271;148;27359;-83
2023/10/15 07:15:29;;;;;;;2.98;1.62;;;15.60;90.00;;;;;;949328;148;27360;-83
2023/10/15 07:17:55;;;;;;;3.20;1.80;;;16.40;88.20;;;;;;932886;151;27850;-80
2023/10/15 07:20:24;;;;;;;2.95;1.52;;;17.10;86.30;;;;;;930143;151;27427;-82
2023/10/15 07:22:50;;;;;;;3.33;1.42;;;17.90;83.90;;;;;;928649;151;27469;-79
2023/10/15 07:25:14;;;;;;;2.20;1.60;;;18.50;80.30;;;;;;948930;148;27355;-76
2023/10/15 07:27:41;;;;;;;2.65;1.60;;;19.00;76.20;;;;;;947837;148;27364;-78
2023/10/15 07:30:08;;;;;;;3.83;1.92;;;19.50;73.90;;;;;;949777;148;27341;-81
2023/10/15 07:32:34;;;;;;;2.70;1.55;;;19.90;73.00;;;;;;948654;148;27344;-75
2023/10/15 07:35:01;;;;;;;2.80;1.80;;;20.20;72.50;;;;;;949188;148;27418;-81
2023/10/15 07:37:28;;;;;;;3.33;1.80;;;20.60;71.10;;;;;;930429;151;27395;-80
2023/10/15 07:39:54;;;;;;;1.75;1.25;;;21.00;70.00;;;;;;932930;151;27362;-75
2023/10/15 07:42:23;;;;;;;3.15;1.47;;;21.30;68.70;;;;;;922890;151;27451;-81
2023/10/15 07:44:48;;;;;;;5.00;1.90;;;21.50;67.80;;;;;;963845;146;27323;-80
2023/10/15 07:47:15;;;;;;;2.12;1.30;;;21.70;66.50;;;;;;963927;146;27304;-80
2023/10/15 07:49:40;;;;;;;2.75;1.57;;;21.80;65.10;;;;;;963695;146;28192;-81
2023/10/15 07:52:07;;;;;;;3.87;1.50;;;21.80;63.60;;;;;;963752;146;27315;-79
2023/10/15 07:54:34;;;;;;;1.62;1.27;;;21.60;62.40;;;;;;964052;146;27334;-80
2023/10/15 07:57:00;;;;;;;3.60;1.75;;;21.40;61.70;;;;;;963983;146;27775;-79
2023/10/15 07:59:27;;;;;;;2.30;1.30;;;21.20;61.20;;;;;;963991;146;27507;-79
2023/10/15 08:01:54;;;;;;;3.37;1.52;;;20.90;61.00;;;;;;965002;146;27636;-82
2023/10/15 08:04:20;;;;;;;2.95;2.02;;;20.60;61.30;;;;;;964444;146;27406;-78
2023/10/15 08:06:46;;;;;;;1.70;1.40;;;20.40;61.90;;;;;;964359;146;27291;-74
2023/10/15 08:09:13;;;;;;;1.75;1.30;;;20.20;61.90;;;;;;963943;146;27459;-73
2023/10/15 08:11:41;;;;;;;2.98;1.27;;;20.10;62.00;;;;;;964337;146;27310;-74
2023/10/15 08:14:06;;;;;;;1.67;1.27;;;20.00;62.40;;;;;;964344;146;27271;-73
2023/10/15 08:16:33;;;;;;;3.70;1.60;;;20.10;64.00;;;;;;963724;146;27403;-73
2023/10/15 08:18:59;;;;;;;1.98;1.20;;;20.30;64.80;;;;;;964551;146;27784;-81
2023/10/15 08:21:26;;;;;;;4.22;1.90;;;20.60;65.50;;;;;;962113;146;27414;-73
2023/10/15 08:23:53;;;;;;;2.98;1.30;;;21.00;64.80;;;;;;964629;146;27267;-73
2023/10/15 08:26:19;;;;;;;1.52;1.00;;;21.30;63.70;;;;;;963796;146;27428;-75
2023/10/15 08:28:46;;;;;;;2.27;1.72;;;21.40;62.50;;;;;;963698;146;27299;-75
2023/10/15 08:31:12;;;;;;;2.70;1.50;;;21.70;61.90;;;;;;963749;146;27424;-75
2023/10/15 08:33:39;;;;;;;2.50;1.80;;;21.80;61.80;;;;;;965602;146;27312;-72
2023/10/15 08:36:07;;;;;;;1.40;1.20;;;21.90;61.40;;;;;;964810;146;28290;-74
2023/10/15 08:38:32;;;;;;;3.47;1.30;;;22.10;60.70;;;;;;964611;146;27392;-75
2023/10/15 08:40:59;;;;;;;2.42;1.27;;;22.20;60.00;;;;;;965372;146;27343;-72
2023/10/15 08:43:25;;;;;;;3.42;1.67;;;22.40;59.60;;;;;;937979;150;27518;-74
2023/10/15 08:45:52;;;;;;;4.80;1.62;;;22.50;59.80;;;;;;967393;145;27423;-72
2023/10/15 08:48:18;;;;;;;2.05;1.20;;;22.80;60.30;;;;;;970076;145;27443;-73
2023/10/15 08:50:45;;;;;;;1.45;1.30;;;23.30;60.40;;;;;;941449;149;27561;-74
2023/10/15 08:53:12;;;;;;;4.62;1.87;;;23.70;60.00;;;;;;969999;145;27358;-74
2023/10/15 08:55:38;;;;;;;2.40;1.65;;;24.10;59.20;;;;;;969652;145;27335;-77
2023/10/15 08:58:06;;;;;;;5.37;2.42;;;24.30;57.80;;;;;;968615;145;27384;-73
2023/10/15 09:00:31;;;;;;;2.55;1.67;;;24.50;57.20;;;;;;938414;149;27281;-75
2023/10/15 09:03:00;;;;;;;1.50;1.27;;;24.50;56.10;;;;;;969101;145;27988;-73
2023/10/15 09:05:25;;;;;;;2.72;1.62;;;24.60;56.20;;;;;;969199;145;27395;-73
2023/10/15 09:07:57;;;;;;;4.62;1.50;;;24.70;56.50;;;;;;948563;148;27928;-76
2023/10/15 09:10:23;;;;;;;1.20;1.10;;;24.80;56.30;;;;;;969019;145;27494;-77
2023/10/15 09:12:50;;;;;;;1.67;1.00;;;25.00;56.00;;;;;;969023;145;27445;-74
2023/10/15 09:15:16;;;;;;;1.98;1.20;;;25.10;55.60;;;;;;968133;145;27346;-77
2023/10/15 09:18:01;;;;;;;3.05;1.17;;;25.20;54.80;;;;;;968682;145;27346;-75
2023/10/15 09:20:28;;;;;;;2.00;1.52;;;25.10;53.50;;;;;;969062;145;27758;-76
2023/10/15 09:23:00;;;;;;;2.92;1.60;;;24.80;52.60;;;;;;969867;145;27411;-80
2023/10/15 09:25:27;;;;;;;3.17;1.98;;;24.40;52.00;;;;;;967520;145;27358;-81
2023/10/15 09:27:53;;;;;;;2.40;1.62;;;23.80;51.90;;;;;;969900;145;27338;-78
2023/10/15 09:30:23;;;;;;;4.35;2.25;;;23.30;52.20;;;;;;970161;145;27330;-79
2023/10/15 09:32:49;;;;;;;2.67;1.65;;;22.80;52.80;;;;;;968713;145;27283;-78
2023/10/15 09:35:16;;;;;;;1.70;1.52;;;22.50;53.80;;;;;;970073;145;27327;-79
2023/10/15 09:37:44;;;;;;;2.62;1.77;;;22.20;54.40;;;;;;969979;145;27404;-80
2023/10/15 09:40:56;;;;;;;3.95;2.08;;;22.10;55.30;;;;;;968904;145;27266;-77
2023/10/15 09:42:38;;;;;;;2.98;1.92;;;22.00;55.20;;;;;;954961;145;27341;-80
2023/10/15 09:45:05;;;;;;;3.27;2.10;;;22.00;55.40;;;;;;953107;145;27400;-81
2023/10/15 09:47:31;;;;;;;1.47;1.25;;;22.00;55.60;;;;;;949171;147;27373;-80
2023/10/15 09:49:59;;;;;;;3.92;3.05;;;22.10;55.50;;;;;;948788;147;27252;-79
2023/10/15 09:52:25;;;;;;;2.42;1.42;;;22.10;55.30;;;;;;949627;147;27429;-80
2023/10/15 09:54:55;;;;;;;2.75;1.20;;;22.10;54.70;;;;;;948812;147;27319;-77
2023/10/15 09:57:18;;;;;;;2.55;1.17;;;22.00;53.80;;;;;;930819;149;27365;-81
2023/10/15 09:59:52;;;;;;;1.87;1.20;;;21.80;53.10;;;;;;950504;147;27410;-78
2023/10/15 10:02:12;;;;;;;2.05;1.37;;;21.50;52.60;;;;;;948789;147;28015;-81
2023/10/15 10:05:05;;;;;;;2.12;1.67;;;21.10;53.10;;;;;;949562;147;27300;-81
2023/10/15 10:07:50;;;;;;;0.78;0.78;;;20.70;52.50;;;;;;948627;147;27464;-82
2023/10/15 10:10:27;;;;;;;2.10;0.80;;;20.30;52.70;;;;;;949141;147;27426;-80
2023/10/15 10:13:07;;;;;;;1.27;1.15;;;19.90;52.90;;;;;;949217;147;28454;-79
2023/10/15 10:15:43;;;;;;;0.95;0.50;;;19.60;53.00;;;;;;948610;147;27326;-81
2023/10/15 10:18:11;;;;;;;2.42;0.90;;;19.30;53.30;;;;;;949788;147;27335;-80
2023/10/15 10:20:38;;;;;;;3.10;1.00;;;19.00;53.90;;;;;;948812;147;27351;-79
2023/10/15 10:23:08;;;;;;;1.65;1.05;;;18.80;54.40;;;;;;949143;147;27317;-81
2023/10/15 10:25:39;;;;;;;1.80;0.98;;;18.60;55.00;;;;;;951049;147;27686;-81
2023/10/15 10:28:07;;;;;;;1.30;0.78;;;18.60;55.40;;;;;;949150;147;27389;-80
2023/10/15 10:30:33;;;;;;;1.10;1.00;;;18.60;55.70;;;;;;948202;147;27885;-76
2023/10/15 10:33:03;;;;;;;1.85;1.12;;;18.70;55.50;;;;;;948991;147;27343;-76
2023/10/15 10:35:31;;;;;;;1.05;0.88;;;18.70;55.10;;;;;;949995;147;27376;-76
2023/10/15 10:38:05;;;;;;;1.10;0.70;;;18.70;55.70;;;;;;944529;147;27360;-76
2023/10/15 10:40:54;;;;;;;1.30;1.20;;;18.70;55.10;;;;;;950591;147;27303;-76
2023/10/15 10:43:26;;;;;;;2.90;1.02;;;18.70;55.20;;;;;;948585;147;27453;-76
2023/10/15 10:45:53;;;;;;;1.07;0.85;;;18.70;55.30;;;;;;963170;145;27822;-76
2023/10/15 10:48:21;;;;;;;0.68;0.55;;;18.60;55.00;;;;;;968005;145;27951;-75
2023/10/15 10:50:48;;;;;;;1.92;1.15;;;18.60;54.90;;;;;;968054;145;27361;-76
2023/10/15 10:53:14;;;;;;;1.00;0.85;;;18.60;54.80;;;;;;968555;145;27259;-76
2023/10/15 10:55:41;;;;;;;1.00;0.80;;;18.50;54.90;;;;;;968726;145;27341;-76
2023/10/15 10:58:10;;;;;;;1.45;1.00;;;18.50;54.80;;;;;;967281;145;27740;-76
2023/10/15 11:00:37;;;;;;;1.60;1.10;;;18.50;54.80;;;;;;937756;149;27330;-76
2023/10/15 11:03:06;;;;;;;1.07;0.93;;;18.50;54.90;;;;;;939632;150;27368;-76
2023/10/15 11:05:30;;;;;;;0.80;0.80;;;18.50;55.00;;;;;;926370;150;27348;-76
2023/10/15 11:07:56;;;;;;;1.65;1.02;;;18.40;55.00;;;;;;926240;151;27970;-76
2023/10/15 11:10:23;;;;;;;1.02;0.82;;;18.40;55.00;;;;;;933652;150;27520;-76
2023/10/15 11:12:49;;;;;;;1.55;1.07;;;18.40;55.10;;;;;;932795;151;27448;-76
2023/10/15 11:15:16;;;;;;;2.22;0.80;;;18.40;55.10;;;;;;948708;148;27384;-75
2023/10/15 11:17:55;;;;;;;1.25;0.78;;;18.30;55.00;;;;;;928963;151;27332;-75
2023/10/15 11:20:21;;;;;;;0.80;0.80;;;18.30;54.90;;;;;;943629;151;27467;-77
2023/10/15 11:22:48;;;;;;;0.82;0.78;;;18.30;54.70;;;;;;950253;148;27433;-75
2023/10/15 11:25:14;;;;;;;1.40;0.85;;;18.30;54.50;;;;;;936207;150;27439;-76
2023/10/15 11:27:41;;;;;;;0.90;0.90;;;18.20;54.40;;;;;;925528;150;27829;-76
2023/10/15 11:30:08;;;;;;;1.32;0.95;;;18.10;54.40;;;;;;926227;151;27361;-76
2023/10/15 11:32:34;;;;;;;1.22;0.90;;;18.00;54.60;;;;;;929970;151;27460;-76
2023/10/15 11:35:01;;;;;;;1.90;0.90;;;17.90;54.60;;;;;;946535;148;27270;-76
2023/10/15 11:37:29;;;;;;;1.45;0.78;;;17.80;54.50;;;;;;929758;151;27368;-76
2023/10/15 11:39:54;;;;;;;0.78;0.60;;;17.70;54.30;;;;;;948664;148;27328;-76
2023/10/15 11:42:21;;;;;;;0.82;0.82;;;17.50;54.30;;;;;;928294;151;27399;-76
2023/10/15 11:44:55;;;;;;;1.42;0.98;;;17.40;54.40;;;;;;933192;151;27561;-75
2023/10/15 11:47:24;;;;;;;1.37;0.75;;;17.20;54.50;;;;;;946571;148;27380;-76
2023/10/15 11:49:43;;;;;;;1.82;1.05;;;17.10;54.50;;;;;;930876;151;27416;-76
2023/10/15 11:52:14;;;;;;;0.60;0.60;;;17.00;54.50;;;;;;946889;148;27321;-76
2023/10/15 11:54:49;;;;;;;1.12;0.75;;;16.80;54.50;;;;;;946928;148;27371;-76
2023/10/15 11:57:16;;;;;;;2.75;1.00;;;16.70;54.80;;;;;;949627;148;28061;-75
2023/10/15 11:59:38;;;;;;;0.75;0.72;;;16.60;55.00;;;;;;944183;148;27478;-75
2023/10/15 12:02:04;;;;;;;1.32;0.88;;;16.50;55.30;;;;;;936580;150;27469;-75
2023/10/15 12:04:32;;;;;;;1.77;0.80;;;16.50;55.50;;;;;;930822;151;27463;-76
2023/10/15 12:06:58;;;;;;;1.07;0.98;;;16.50;55.60;;;;;;937507;150;27380;-75
2023/10/15 12:09:27;;;;;;;1.77;0.70;;;16.50;55.70;;;;;;931653;151;27494;-75
2023/10/15 12:11:53;;;;;;;0.85;0.85;;;16.50;55.90;;;;;;948228;148;27372;-76
2023/10/15 12:14:20;;;;;;;1.17;1.02;;;16.60;56.00;;;;;;949813;148;27442;-76
2023/10/15 12:16:46;;;;;;;2.87;1.22;;;16.60;56.10;;;;;;948049;148;27449;-75
2023/10/15 12:19:13;;;;;;;1.02;0.93;;;16.60;56.10;;;;;;932456;151;27461;-75
2023/10/15 12:21:39;;;;;;;1.02;0.88;;;16.70;56.10;;;;;;948203;148;27478;-75
2023/10/15 12:24:09;;;;;;;0.80;0.80;;;16.70;55.90;;;;;;929769;151;27355;-76
2023/10/15 12:26:33;;;;;;;2.52;0.70;;;16.70;55.70;;;;;;937413;151;27364;-76
2023/10/15 12:28:59;;;;;;;1.02;0.75;;;16.70;56.10;;;;;;933964;151;27481;-76
2023/10/15 12:31:26;;;;;;;1.95;0.90;;;16.60;56.40;;;;;;933002;151;27385;-76
2023/10/15 12:33:53;;;;;;;2.40;0.93;;;16.40;56.50;;;;;;925464;151;27530;-76
2023/10/15 12:36:21;;;;;;;0.80;0.62;;;16.20;56.70;;;;;;926470;151;27502;-76
2023/10/15 12:38:46;;;;;;;1.30;0.93;;;16.00;57.00;;;;;;929836;151;27398;-76
2023/10/15 12:41:12;;;;;;;1.27;1.00;;;15.70;57.30;;;;;;947675;148;27351;-76
2023/10/15 12:43:40;;;;;;;0.90;0.90;;;15.50;57.80;;;;;;940820;151;27510;-76
2023/10/15 12:46:06;;;;;;;1.50;1.20;;;15.20;58.30;;;;;;931841;151;27523;-76
2023/10/15 12:48:32;;;;;;;1.10;1.00;;;15.00;58.70;;;;;;946055;148;28461;-76
2023/10/15 12:50:59;;;;;;;1.03;0.93;;;14.80;59.30;;;;;;948652;148;27409;-76
2023/10/15 12:53:25;;;;;;;0.80;0.80;;;14.60;59.60;;;;;;948959;148;27305;-76
2023/10/15 12:55:52;;;;;;;1.30;1.20;;;14.50;60.10;;;;;;948873;148;27324;-76
2023/10/15 12:58:18;;;;;;;1.73;1.23;;;14.40;60.70;;;;;;934029;151;27370;-76
2023/10/15 13:00:48;;;;;;;1.60;1.17;;;14.30;61.10;;;;;;936769;150;27368;-76
2023/10/15 13:03:12;;;;;;;1.30;1.13;;;14.20;61.40;;;;;;937188;150;27354;-76
2023/10/15 13:05:38;;;;;;;0.97;0.83;;;14.10;61.70;;;;;;931903;150;27470;-76
2023/10/15 13:08:05;;;;;;;1.63;1.20;;;14.10;61.90;;;;;;928371;151;27414;-75
2023/10/15 13:10:32;;;;;;;1.13;0.97;;;14.10;62.00;;;;;;948789;148;27356;-76